createdAt,value
2022-10-19T00:00:44.626Z,-6.65
2022-10-19T00:01:44.603Z,-6.70
2022-10-19T00:02:44.740Z,-6.71
2022-10-19T00:03:44.623Z,-6.71
2022-10-19T00:04:44.571Z,-6.73
2022-10-19T00:05:44.534Z,-6.72
2022-10-19T00:06:44.568Z,-6.73
2022-10-19T00:07:44.519Z,-6.79
2022-10-19T00:08:44.544Z,-6.80
2022-10-19T00:09:44.595Z,-6.81
2022-10-19T00:10:44.504Z,-6.82
2022-10-19T00:11:44.471Z,-6.82
2022-10-19T00:12:50.479Z,-6.79
2022-10-19T00:13:56.343Z,-6.75
2022-10-19T00:14:56.479Z,-6.74
2022-10-19T00:15:56.406Z,-6.73
2022-10-19T00:16:56.411Z,-6.71
2022-10-19T00:17:56.383Z,-6.67
2022-10-19T00:18:56.395Z,-6.62
2022-10-19T00:19:56.390Z,-6.65
2022-10-19T00:20:56.413Z,-6.67
2022-10-19T00:21:56.323Z,-6.68
2022-10-19T00:22:56.362Z,-6.73
2022-10-19T00:23:56.317Z,-6.72
2022-10-19T00:24:56.344Z,-6.75
2022-10-19T00:25:56.293Z,-6.75
2022-10-19T00:26:56.344Z,-6.73
2022-10-19T00:27:56.269Z,-6.75
2022-10-19T00:28:56.400Z,-6.77
2022-10-19T00:29:56.229Z,-6.78
2022-10-19T00:30:56.246Z,-6.79
2022-10-19T00:31:56.199Z,-6.81
2022-10-19T00:32:56.228Z,-6.83
2022-10-19T00:33:56.215Z,-6.83
2022-10-19T00:34:56.202Z,-6.87
2022-10-19T00:35:56.173Z,-6.87
2022-10-19T00:36:56.182Z,-6.86
2022-10-19T00:37:56.133Z,-6.81
2022-10-19T00:38:56.262Z,-6.77
2022-10-19T00:39:56.123Z,-6.76
2022-10-19T00:40:56.127Z,-6.70
2022-10-19T00:41:56.102Z,-6.70
2022-10-19T00:42:56.112Z,-6.71
2022-10-19T00:43:56.078Z,-6.73
2022-10-19T00:44:56.132Z,-6.75
2022-10-19T00:45:56.048Z,-6.77
2022-10-19T00:46:56.066Z,-6.81
2022-10-19T00:47:56.015Z,-6.87
2022-10-19T00:48:56.037Z,-6.89
2022-10-19T00:49:55.993Z,-6.92
2022-10-19T00:50:56.019Z,-6.98
2022-10-19T00:51:55.990Z,-7.03
2022-10-19T00:52:56.004Z,-7.05
2022-10-19T00:53:55.981Z,-7.06
2022-10-19T00:54:55.985Z,-7.09
2022-10-19T00:55:56.008Z,-7.11
2022-10-19T00:56:56.141Z,-7.12
2022-10-19T00:57:55.944Z,-7.15
2022-10-19T00:59:01.861Z,-7.18
2022-10-19T01:00:07.801Z,-7.13
2022-10-19T01:01:08.015Z,-7.10
2022-10-19T01:02:07.990Z,-7.09
2022-10-19T01:03:07.903Z,-7.10
2022-10-19T01:04:07.900Z,-7.10
2022-10-19T01:05:07.897Z,-7.09
2022-10-19T01:06:07.879Z,-7.12
2022-10-19T01:07:07.874Z,-7.12
2022-10-19T01:08:07.962Z,-7.13
2022-10-19T01:09:07.874Z,-7.11
2022-10-19T01:10:07.850Z,-7.11
2022-10-19T01:11:07.862Z,-7.12
2022-10-19T01:12:07.839Z,-7.15
2022-10-19T01:13:07.869Z,-7.13
2022-10-19T01:14:07.830Z,-7.11
2022-10-19T01:15:07.843Z,-7.12
2022-10-19T01:16:07.790Z,-7.10
2022-10-19T01:17:07.910Z,-7.10
2022-10-19T01:18:07.769Z,-7.09
2022-10-19T01:19:07.783Z,-7.09
2022-10-19T01:20:07.803Z,-7.08
2022-10-19T01:21:07.774Z,-7.09
2022-10-19T01:22:07.734Z,-7.10
2022-10-19T01:23:07.732Z,-7.08
2022-10-19T01:24:07.738Z,-7.11
2022-10-19T01:25:07.687Z,-7.09
2022-10-19T01:26:07.721Z,-7.12
2022-10-19T01:27:07.717Z,-7.13
2022-10-19T01:28:07.683Z,-7.15
2022-10-19T01:29:07.751Z,-7.18
2022-10-19T01:30:07.634Z,-7.19
2022-10-19T01:31:07.638Z,-7.19
2022-10-19T01:32:07.608Z,-7.20
2022-10-19T01:33:07.598Z,-7.23
2022-10-19T01:34:07.571Z,-7.29
2022-10-19T01:35:07.581Z,-7.35
2022-10-19T01:36:07.527Z,-7.39
2022-10-19T01:37:07.534Z,-7.42
2022-10-19T01:38:07.628Z,-7.44
2022-10-19T01:39:07.655Z,-7.44
2022-10-19T01:40:07.450Z,-7.42
2022-10-19T01:41:07.499Z,-7.41
2022-10-19T01:42:07.416Z,-7.45
2022-10-19T01:43:11.337Z,-7.44
2022-10-19T01:44:11.396Z,-7.41
2022-10-19T01:45:11.363Z,-7.40
2022-10-19T01:46:15.269Z,-7.40
2022-10-19T01:47:15.370Z,-7.41
2022-10-19T01:48:15.351Z,-7.41
2022-10-19T01:49:15.481Z,-7.42
2022-10-19T01:50:15.305Z,-7.46
2022-10-19T01:51:15.313Z,-7.47
2022-10-19T01:52:15.281Z,-7.48
2022-10-19T01:53:15.281Z,-7.46
2022-10-19T01:54:15.268Z,-7.49
2022-10-19T01:55:15.253Z,-7.52
2022-10-19T01:56:15.241Z,-7.51
2022-10-19T01:57:15.229Z,-7.52
2022-10-19T01:58:15.192Z,-7.53
2022-10-19T01:59:15.203Z,-7.52
2022-10-19T02:00:15.201Z,-7.55
2022-10-19T02:01:15.191Z,-7.56
2022-10-19T02:02:15.148Z,-7.54
2022-10-19T02:03:15.129Z,-7.56
2022-10-19T02:04:15.084Z,-7.61
2022-10-19T02:05:20.999Z,-7.62
2022-10-19T02:06:21.049Z,-7.64
2022-10-19T02:07:21.055Z,-7.64
2022-10-19T02:08:26.920Z,-7.67
2022-10-19T02:09:27.000Z,-7.67
2022-10-19T02:10:26.972Z,-7.67
2022-10-19T02:11:26.942Z,-7.64
2022-10-19T02:12:26.885Z,-7.68
2022-10-19T02:13:26.879Z,-7.72
2022-10-19T02:14:26.851Z,-7.75
2022-10-19T02:15:26.844Z,-7.77
2022-10-19T02:16:26.926Z,-7.78
2022-10-19T02:17:26.823Z,-7.78
2022-10-19T02:18:26.747Z,-7.78
2022-10-19T02:19:26.774Z,-7.76
2022-10-19T02:20:26.756Z,-7.76
2022-10-19T02:21:26.715Z,-7.78
2022-10-19T02:22:26.699Z,-7.81
2022-10-19T02:23:26.683Z,-7.80
2022-10-19T02:24:26.654Z,-7.81
2022-10-19T02:25:26.676Z,-7.81
2022-10-19T02:26:26.602Z,-7.81
2022-10-19T02:27:26.613Z,-7.78
2022-10-19T02:28:26.727Z,-7.76
2022-10-19T02:29:26.587Z,-7.70
2022-10-19T02:30:26.560Z,-7.67
2022-10-19T02:31:26.622Z,-7.67
2022-10-19T02:32:26.516Z,-7.65
2022-10-19T02:33:38.995Z,-7.66
2022-10-19T02:34:26.522Z,-7.67
2022-10-19T02:35:26.522Z,-7.66
2022-10-19T02:36:26.490Z,-7.65
2022-10-19T02:37:26.615Z,-7.65
2022-10-19T02:38:26.438Z,-7.64
2022-10-19T02:39:27.358Z,-7.64
2022-10-19T02:40:31.352Z,-7.64
2022-10-19T02:41:31.441Z,-7.63
2022-10-19T02:42:31.705Z,-7.65
2022-10-19T02:43:31.410Z,-7.68
2022-10-19T02:44:31.376Z,-7.69
2022-10-19T02:45:31.375Z,-7.70
2022-10-19T02:46:31.408Z,-7.72
2022-10-19T02:47:31.562Z,-7.75
2022-10-19T02:48:31.317Z,-7.77
2022-10-19T02:49:31.319Z,-7.79
2022-10-19T02:50:31.311Z,-7.78
2022-10-19T02:52:37.211Z,-7.78
2022-10-19T02:53:37.280Z,-7.78
2022-10-19T02:54:37.415Z,-7.77
2022-10-19T02:55:42.852Z,-7.74
2022-10-19T02:56:47.129Z,-7.77
2022-10-19T02:57:47.252Z,-7.75
2022-10-19T02:58:47.210Z,-7.75
2022-10-19T02:59:47.221Z,-7.77
2022-10-19T03:00:47.390Z,-7.76
2022-10-19T03:01:47.219Z,-7.77
2022-10-19T03:02:47.218Z,-7.76
2022-10-19T03:03:47.178Z,-7.77
2022-10-19T03:05:47.169Z,-7.79
2022-10-19T03:06:47.164Z,-7.79
2022-10-19T03:07:47.134Z,-7.81
2022-10-19T03:08:47.094Z,-7.80
2022-10-19T03:09:47.103Z,-7.83
2022-10-19T03:10:47.063Z,-7.84
2022-10-19T03:11:47.075Z,-7.85
2022-10-19T03:12:47.071Z,-7.84
2022-10-19T03:14:46.994Z,-7.87
2022-10-19T03:15:47.018Z,-7.89
2022-10-19T03:16:46.946Z,-7.86
2022-10-19T03:17:46.963Z,-7.84
2022-10-19T03:18:47.346Z,-7.82
2022-10-19T03:19:46.923Z,-7.82
2022-10-19T03:20:46.881Z,-7.79
2022-10-19T03:21:46.883Z,-7.77
2022-10-19T03:22:46.887Z,-7.78
2022-10-19T03:23:46.834Z,-7.79
2022-10-19T03:24:46.803Z,-7.79
2022-10-19T03:25:46.786Z,-7.80
2022-10-19T03:26:46.744Z,-7.81
2022-10-19T03:27:46.730Z,-7.81
2022-10-19T03:28:46.762Z,-7.83
2022-10-19T03:29:46.687Z,-7.84
2022-10-19T03:30:46.682Z,-7.85
2022-10-19T03:31:46.668Z,-7.86
2022-10-19T03:32:46.609Z,-7.84
2022-10-19T03:33:46.615Z,-7.84
2022-10-19T03:34:46.599Z,-7.85
2022-10-19T03:35:46.598Z,-7.90
2022-10-19T03:36:46.542Z,-7.91
2022-10-19T03:37:46.541Z,-7.92
2022-10-19T03:38:46.489Z,-7.93
2022-10-19T03:39:46.487Z,-7.96
2022-10-19T03:40:46.446Z,-7.96
2022-10-19T03:41:46.463Z,-7.97
2022-10-19T03:42:46.577Z,-7.95
2022-10-19T03:43:51.387Z,-7.96
2022-10-19T03:44:56.308Z,-7.96
2022-10-19T03:45:56.403Z,-7.97
2022-10-19T03:46:56.353Z,-7.98
2022-10-19T03:47:56.400Z,-7.99
2022-10-19T03:48:56.305Z,-8.00
2022-10-19T03:49:56.298Z,-8.00
2022-10-19T03:50:56.257Z,-8.01
2022-10-19T03:51:56.260Z,-8.01
2022-10-19T03:52:56.257Z,-8.04
2022-10-19T03:53:56.355Z,-8.06
2022-10-19T03:54:56.180Z,-8.05
2022-10-19T03:55:56.648Z,-8.07
2022-10-19T03:56:56.127Z,-8.09
2022-10-19T03:57:56.155Z,-8.11
2022-10-19T03:58:56.111Z,-8.11
2022-10-19T03:59:56.234Z,-8.12
2022-10-19T04:00:56.108Z,-8.14
2022-10-19T04:01:56.101Z,-8.15
2022-10-19T04:02:56.076Z,-8.19
2022-10-19T04:03:56.098Z,-8.21
2022-10-19T04:04:56.052Z,-8.22
2022-10-19T04:05:56.160Z,-8.24
2022-10-19T04:06:56.177Z,-8.25
2022-10-19T04:08:01.912Z,-8.27
2022-10-19T04:09:02.010Z,-8.30
2022-10-19T04:10:02.036Z,-8.33
2022-10-19T04:11:06.965Z,-8.34
2022-10-19T04:12:06.989Z,-8.34
2022-10-19T04:13:06.963Z,-8.36
2022-10-19T04:14:07.088Z,-8.35
2022-10-19T04:17:00.903Z,-8.37
2022-10-19T04:18:00.983Z,-8.38
2022-10-19T04:19:01.344Z,-8.38
2022-10-19T04:20:00.939Z,-8.39
2022-10-19T04:21:00.912Z,-8.37
2022-10-19T04:22:00.905Z,-8.34
2022-10-19T04:23:01.025Z,-8.35
2022-10-19T04:24:00.899Z,-8.35
2022-10-19T04:25:00.888Z,-8.36
2022-10-19T04:26:05.771Z,-8.37
2022-10-19T04:27:11.760Z,-8.37
2022-10-19T04:28:11.837Z,-8.38
2022-10-19T04:29:11.841Z,-8.38
2022-10-19T04:30:11.806Z,-8.37
2022-10-19T04:31:16.801Z,-8.38
2022-10-19T04:32:16.757Z,-8.39
2022-10-19T04:33:16.872Z,-8.41
2022-10-19T04:34:16.773Z,-8.36
2022-10-19T04:35:16.700Z,-8.35
2022-10-19T04:36:16.734Z,-8.35
2022-10-19T04:37:16.677Z,-8.35
2022-10-19T04:38:16.782Z,-8.36
2022-10-19T04:39:16.651Z,-8.35
2022-10-19T04:40:21.537Z,-8.35
2022-10-19T04:41:26.532Z,-8.37
2022-10-19T04:42:26.609Z,-8.40
2022-10-19T04:43:26.579Z,-8.40
2022-10-19T04:44:26.722Z,-8.42
2022-10-19T04:45:26.548Z,-8.45
2022-10-19T04:46:26.986Z,-8.44
2022-10-19T04:47:32.794Z,-8.46
2022-10-19T04:48:32.547Z,-8.44
2022-10-19T04:49:32.539Z,-8.45
2022-10-19T04:50:32.525Z,-8.46
2022-10-19T04:51:32.465Z,-8.46
2022-10-19T04:52:32.473Z,-8.48
2022-10-19T04:53:32.432Z,-8.46
2022-10-19T04:54:32.431Z,-8.46
2022-10-19T04:55:32.538Z,-8.46
2022-10-19T04:56:32.639Z,-8.49
2022-10-19T04:57:32.841Z,-8.53
2022-10-19T04:58:32.373Z,-8.51
2022-10-19T04:59:32.316Z,-8.50
2022-10-19T05:00:32.339Z,-8.49
2022-10-19T05:01:32.301Z,-8.46
2022-10-19T05:02:32.324Z,-8.44
2022-10-19T05:03:32.266Z,-8.43
2022-10-19T05:04:32.288Z,-8.41
2022-10-19T05:05:32.251Z,-8.39
2022-10-19T05:06:32.264Z,-8.34
2022-10-19T05:07:32.797Z,-8.34
2022-10-19T05:08:32.260Z,-8.33
2022-10-19T05:09:32.240Z,-8.30
2022-10-19T05:10:32.262Z,-8.29
2022-10-19T05:11:32.232Z,-8.30
2022-10-19T05:12:32.236Z,-8.30
2022-10-19T05:13:32.309Z,-8.30
2022-10-19T05:14:32.228Z,-8.30
2022-10-19T05:15:32.221Z,-8.29
2022-10-19T05:16:32.209Z,-8.29
2022-10-19T05:17:32.541Z,-8.31
2022-10-19T05:18:32.204Z,-8.33
2022-10-19T05:19:32.192Z,-8.31
2022-10-19T05:20:32.194Z,-8.31
2022-10-19T05:21:32.119Z,-8.33
2022-10-19T05:22:32.130Z,-8.35
2022-10-19T05:24:36.992Z,-8.39
2022-10-19T05:25:42.012Z,-8.39
2022-10-19T05:26:42.063Z,-8.42
2022-10-19T05:27:42.008Z,-8.41
2022-10-19T05:28:42.237Z,-8.42
2022-10-19T05:29:42.113Z,-8.44
2022-10-19T05:30:46.687Z,-8.43
2022-10-19T05:31:41.974Z,-8.46
2022-10-19T05:32:41.944Z,-8.46
2022-10-19T05:33:41.908Z,-8.45
2022-10-19T05:34:41.918Z,-8.44
2022-10-19T05:35:41.956Z,-8.42
2022-10-19T05:36:41.894Z,-8.40
2022-10-19T05:37:41.811Z,-8.40
2022-10-19T05:38:41.822Z,-8.40
2022-10-19T05:39:41.932Z,-8.39
2022-10-19T05:40:41.803Z,-8.39
2022-10-19T05:41:47.822Z,-8.40
2022-10-19T05:42:47.747Z,-8.41
2022-10-19T05:43:47.727Z,-8.41
2022-10-19T05:44:47.754Z,-8.40
2022-10-19T05:45:47.681Z,-8.39
2022-10-19T05:46:47.705Z,-8.39
2022-10-19T05:47:47.691Z,-8.37
2022-10-19T05:48:47.676Z,-8.39
2022-10-19T05:49:47.787Z,-8.39
2022-10-19T05:50:47.681Z,-8.39
2022-10-19T05:51:47.622Z,-8.38
2022-10-19T05:52:47.632Z,-8.38
2022-10-19T05:53:47.634Z,-8.38
2022-10-19T05:54:47.605Z,-8.37
2022-10-19T05:55:47.567Z,-8.36
2022-10-19T05:56:47.582Z,-8.37
2022-10-19T05:57:47.551Z,-8.38
2022-10-19T05:58:47.553Z,-8.38
2022-10-19T05:59:53.717Z,-8.40
2022-10-19T06:00:53.524Z,-8.41
2022-10-19T06:01:53.548Z,-8.43
2022-10-19T06:02:58.291Z,-8.45
2022-10-19T06:03:53.478Z,-8.46
2022-10-19T06:04:53.502Z,-8.44
2022-10-19T06:05:53.479Z,-8.43
2022-10-19T06:06:53.479Z,-8.42
2022-10-19T06:07:53.427Z,-8.42
2022-10-19T06:08:53.445Z,-8.43
2022-10-19T06:09:53.389Z,-8.42
2022-10-19T06:10:53.417Z,-8.41
2022-10-19T06:11:53.481Z,-8.41
2022-10-19T06:12:53.337Z,-8.40
2022-10-19T06:13:53.294Z,-8.38
2022-10-19T06:14:53.300Z,-8.37
2022-10-19T06:15:53.258Z,-8.37
2022-10-19T06:16:53.253Z,-8.34
2022-10-19T06:17:53.224Z,-8.33
2022-10-19T06:18:53.215Z,-8.33
2022-10-19T06:19:53.150Z,-8.31
2022-10-19T06:20:53.135Z,-8.31
2022-10-19T06:21:53.249Z,-8.33
2022-10-19T06:22:53.094Z,-8.31
2022-10-19T06:23:53.196Z,-8.30
2022-10-19T06:24:53.071Z,-8.26
2022-10-19T06:25:53.030Z,-8.24
2022-10-19T06:26:53.037Z,-8.22
2022-10-19T06:27:53.446Z,-8.21
2022-10-19T06:28:53.070Z,-8.22
2022-10-19T06:29:53.129Z,-8.22
2022-10-19T06:30:57.951Z,-8.21
2022-10-19T06:32:03.890Z,-8.23
2022-10-19T06:34:07.931Z,-8.23
2022-10-19T06:35:08.073Z,-8.23
2022-10-19T06:36:07.957Z,-8.24
2022-10-19T06:37:07.964Z,-8.23
2022-10-19T06:38:07.946Z,-8.22
2022-10-19T06:39:07.956Z,-8.22
2022-10-19T06:40:07.995Z,-8.18
2022-10-19T06:41:08.067Z,-8.16
2022-10-19T06:42:07.961Z,-8.14
2022-10-19T06:43:07.943Z,-8.09
2022-10-19T06:44:07.913Z,-8.09
2022-10-19T06:45:12.843Z,-8.04
2022-10-19T06:46:18.886Z,-7.99
2022-10-19T06:47:18.922Z,-7.96
2022-10-19T06:48:18.882Z,-7.95
2022-10-19T06:49:18.895Z,-7.93
2022-10-19T06:50:18.859Z,-7.89
2022-10-19T06:51:24.812Z,-7.87
2022-10-19T06:52:24.956Z,-7.84
2022-10-19T06:53:24.811Z,-7.84
2022-10-19T06:54:24.812Z,-7.80
2022-10-19T06:55:24.793Z,-7.80
2022-10-19T06:56:29.702Z,-7.77
2022-10-19T06:57:29.792Z,-7.79
2022-10-19T06:58:29.766Z,-7.78
2022-10-19T06:59:29.800Z,-7.77
2022-10-19T07:00:29.862Z,-7.78
2022-10-19T07:01:29.992Z,-7.79
2022-10-19T07:02:29.838Z,-7.78
2022-10-19T07:03:29.744Z,-7.80
2022-10-19T07:04:29.705Z,-7.81
2022-10-19T07:05:29.723Z,-7.82
2022-10-19T07:06:29.694Z,-7.83
2022-10-19T07:07:29.909Z,-7.83
2022-10-19T07:08:29.668Z,-7.83
2022-10-19T07:09:29.648Z,-7.82
2022-10-19T07:10:29.624Z,-7.82
2022-10-19T07:11:29.627Z,-7.82
2022-10-19T07:12:29.583Z,-7.82
2022-10-19T07:13:29.712Z,-7.81
2022-10-19T07:14:29.559Z,-7.78
2022-10-19T07:15:29.561Z,-7.78
2022-10-19T07:16:29.516Z,-7.77
2022-10-19T07:17:29.527Z,-7.76
2022-10-19T07:18:29.482Z,-7.72
2022-10-19T07:19:29.614Z,-7.70
2022-10-19T07:20:29.435Z,-7.69
2022-10-19T07:21:29.452Z,-7.66
2022-10-19T07:22:29.407Z,-7.65
2022-10-19T07:23:29.417Z,-7.62
2022-10-19T07:24:29.538Z,-7.62
2022-10-19T07:25:29.406Z,-7.59
2022-10-19T07:26:29.348Z,-7.59
2022-10-19T07:27:31.869Z,-7.59
2022-10-19T07:28:29.349Z,-7.54
2022-10-19T07:29:29.355Z,-7.54
2022-10-19T07:30:29.329Z,-7.52
2022-10-19T07:31:29.377Z,-7.50
2022-10-19T07:32:29.314Z,-7.49
2022-10-19T07:33:40.472Z,-7.46
2022-10-19T07:34:29.337Z,-7.44
2022-10-19T07:35:29.366Z,-7.39
2022-10-19T07:36:29.302Z,-7.36
2022-10-19T07:37:29.431Z,-7.32
2022-10-19T07:38:29.270Z,-7.30
2022-10-19T07:39:29.280Z,-7.26
2022-10-19T07:40:29.272Z,-7.23
2022-10-19T07:41:29.248Z,-7.18
2022-10-19T07:42:29.228Z,-7.13
2022-10-19T07:43:29.249Z,-7.11
2022-10-19T07:44:29.206Z,-7.08
2022-10-19T07:45:29.222Z,-7.05
2022-10-19T07:46:29.341Z,-7.04
2022-10-19T07:47:29.192Z,-7.00
2022-10-19T07:48:29.160Z,-6.93
2022-10-19T07:49:29.298Z,-6.90
2022-10-19T07:50:29.148Z,-6.83
2022-10-19T07:52:31.819Z,-6.74
2022-10-19T07:53:29.153Z,-6.71
2022-10-19T07:54:29.129Z,-6.64
2022-10-19T07:55:29.274Z,-6.57
2022-10-19T07:56:29.150Z,-6.51
2022-10-19T07:57:29.283Z,-6.39
2022-10-19T07:58:29.114Z,-6.32
2022-10-19T07:59:29.136Z,-6.23
2022-10-19T08:00:29.198Z,-6.16
2022-10-19T08:01:29.220Z,-6.12
2022-10-19T08:02:39.411Z,-6.06
2022-10-19T08:04:31.363Z,-6.01
2022-10-19T08:04:55.913Z,-5.97
2022-10-19T08:05:29.213Z,-5.94
2022-10-19T08:06:29.104Z,-5.88
2022-10-19T08:07:29.123Z,-5.85
2022-10-19T08:08:29.154Z,-5.80
2022-10-19T08:09:52.185Z,-5.78
2022-10-19T08:10:29.084Z,-5.71
2022-10-19T08:11:29.065Z,-5.67
2022-10-19T08:12:29.079Z,-5.62
2022-10-19T08:13:29.107Z,-5.56
2022-10-19T08:14:29.051Z,-5.49
2022-10-19T08:15:29.201Z,-5.46
2022-10-19T08:16:33.966Z,-5.41
2022-10-19T08:17:34.071Z,-5.39
2022-10-19T08:18:34.180Z,-5.35
2022-10-19T08:19:34.052Z,-5.30
2022-10-19T08:20:34.062Z,-5.26
2022-10-19T08:21:34.048Z,-5.18
2022-10-19T08:22:38.918Z,-5.12
2022-10-19T08:23:39.055Z,-5.06
2022-10-19T08:24:39.014Z,-5.04
2022-10-19T08:25:43.992Z,-4.98
2022-10-19T08:26:48.931Z,-4.90
2022-10-19T08:27:49.057Z,-4.86
2022-10-19T08:28:49.207Z,-4.81
2022-10-19T08:29:49.065Z,-4.75
2022-10-19T08:30:49.039Z,-4.71
2022-10-19T08:31:49.070Z,-4.68
2022-10-19T08:32:49.023Z,-4.65
2022-10-19T08:33:49.053Z,-4.65
2022-10-19T08:34:49.219Z,-4.61
2022-10-19T08:35:54.034Z,-4.58
2022-10-19T08:36:54.076Z,-4.53
2022-10-19T08:37:54.456Z,-4.48
2022-10-19T08:38:54.085Z,-4.41
2022-10-19T08:39:54.097Z,-4.37
2022-10-19T08:42:48.021Z,-4.34
2022-10-19T08:43:48.099Z,-4.25
2022-10-19T08:44:48.106Z,-4.23
2022-10-19T08:45:48.255Z,-4.19
2022-10-19T08:46:48.151Z,-4.14
2022-10-19T08:47:48.123Z,-4.11
2022-10-19T08:48:48.165Z,-4.06
2022-10-19T08:49:48.164Z,-4.04
2022-10-19T08:50:48.179Z,-3.98
2022-10-19T08:51:48.284Z,-3.94
2022-10-19T08:52:54.058Z,-3.89
2022-10-19T08:53:54.201Z,-3.83
2022-10-19T08:54:54.220Z,-3.77
2022-10-19T08:55:54.234Z,-3.70
2022-10-19T08:56:54.373Z,-3.63
2022-10-19T08:57:54.260Z,-3.57
2022-10-19T08:58:54.243Z,-3.54
2022-10-19T08:59:54.417Z,-3.53
2022-10-19T09:00:54.270Z,-3.46
2022-10-19T09:01:54.297Z,-3.47
2022-10-19T09:02:54.416Z,-3.39
2022-10-19T09:03:55.795Z,-3.37
2022-10-19T09:04:54.343Z,-3.33
2022-10-19T09:05:54.373Z,-3.30
2022-10-19T09:06:54.379Z,-3.31
2022-10-19T09:07:54.453Z,-3.26
2022-10-19T09:08:54.461Z,-3.22
2022-10-19T09:09:54.537Z,-3.22
2022-10-19T09:10:54.443Z,-3.24
2022-10-19T09:11:54.485Z,-3.32
2022-10-19T09:12:57.805Z,-3.37
2022-10-19T09:14:04.663Z,-3.34
2022-10-19T09:14:54.529Z,-3.37
2022-10-19T09:15:54.562Z,-3.48
2022-10-19T09:16:54.568Z,-3.52
2022-10-19T09:17:55.019Z,-3.60
2022-10-19T09:19:54.751Z,-3.71
2022-10-19T09:20:54.631Z,-3.78
2022-10-19T09:21:54.666Z,-3.83
2022-10-19T09:22:54.673Z,-3.92
2022-10-19T09:23:54.829Z,-3.98
2022-10-19T09:24:54.698Z,-4.04
2022-10-19T09:25:54.726Z,-4.09
2022-10-19T09:26:54.740Z,-4.16
2022-10-19T09:27:54.793Z,-4.25
2022-10-19T09:28:54.770Z,-4.35
2022-10-19T09:29:54.959Z,-4.39
2022-10-19T09:30:54.800Z,-4.45
2022-10-19T09:31:54.935Z,-4.50
2022-10-19T09:32:54.852Z,-4.56
2022-10-19T09:33:54.885Z,-4.58
2022-10-19T09:34:54.911Z,-4.59
2022-10-19T09:35:55.069Z,-4.61
2022-10-19T09:36:54.935Z,-4.67
2022-10-19T09:38:00.882Z,-4.67
2022-10-19T09:39:00.997Z,-4.69
2022-10-19T09:40:01.111Z,-4.69
2022-10-19T09:41:01.136Z,-4.70
2022-10-19T09:42:01.047Z,-4.70
2022-10-19T09:43:01.059Z,-4.71
2022-10-19T09:44:01.031Z,-4.71
2022-10-19T09:45:01.060Z,-4.71
2022-10-19T09:46:01.051Z,-4.70
2022-10-19T09:47:01.140Z,-4.69
2022-10-19T09:48:07.131Z,-4.68
2022-10-19T09:49:06.115Z,-4.70
2022-10-19T09:50:12.127Z,-4.70
2022-10-19T09:51:12.107Z,-4.67
2022-10-19T09:52:12.230Z,-4.65
2022-10-19T09:53:17.040Z,-4.66
2022-10-19T09:54:17.185Z,-4.66
2022-10-19T09:55:17.172Z,-4.67
2022-10-19T09:56:17.240Z,-4.67
2022-10-19T09:57:22.135Z,-4.66
2022-10-19T09:58:22.242Z,-4.66
2022-10-19T09:59:22.242Z,-4.65
2022-10-19T10:00:27.324Z,-4.65
2022-10-19T10:01:34.155Z,-4.65
2022-10-19T10:02:27.529Z,-4.61
2022-10-19T10:03:27.330Z,-4.63
2022-10-19T10:04:27.323Z,-4.61
2022-10-19T10:05:33.242Z,-4.63
2022-10-19T10:06:33.382Z,-4.60
2022-10-19T10:07:33.784Z,-4.59
2022-10-19T10:08:33.526Z,-4.55
2022-10-19T10:09:39.338Z,-4.54
2022-10-19T10:10:39.543Z,-4.54
2022-10-19T10:11:39.415Z,-4.50
2022-10-19T10:12:39.560Z,-4.48
2022-10-19T10:13:39.432Z,-4.45
2022-10-19T10:14:39.474Z,-4.42
2022-10-19T10:15:39.468Z,-4.42
2022-10-19T10:16:39.486Z,-4.42
2022-10-19T10:17:39.853Z,-4.40
2022-10-19T10:18:45.407Z,-4.38
2022-10-19T10:19:45.543Z,-4.37
2022-10-19T10:20:45.694Z,-4.35
2022-10-19T10:21:45.556Z,-4.34
2022-10-19T10:22:45.644Z,-4.34
2022-10-19T10:23:45.586Z,-4.30
2022-10-19T10:24:45.957Z,-4.29
2022-10-19T10:25:50.494Z,-4.29
2022-10-19T10:26:50.620Z,-4.28
2022-10-19T10:27:50.766Z,-4.27
2022-10-19T10:28:50.691Z,-4.26
2022-10-19T10:29:50.698Z,-4.25
2022-10-19T10:30:54.612Z,-4.22
2022-10-19T10:31:54.708Z,-4.20
2022-10-19T10:32:54.847Z,-4.15
2022-10-19T10:33:54.724Z,-4.14
2022-10-19T10:34:57.107Z,-4.10
2022-10-19T10:35:58.646Z,-4.06
2022-10-19T10:36:58.782Z,-4.06
2022-10-19T10:37:58.806Z,-4.00
2022-10-19T10:38:58.861Z,-3.97
2022-10-19T10:40:01.920Z,-3.92
2022-10-19T10:41:03.874Z,-3.89
2022-10-19T10:42:03.893Z,-3.85
2022-10-19T10:43:03.926Z,-3.82
2022-10-19T10:44:04.993Z,-3.81
2022-10-19T10:45:03.950Z,-3.79
2022-10-19T10:46:03.969Z,-3.78
2022-10-19T10:47:03.984Z,-3.78
2022-10-19T10:48:04.162Z,-3.75
2022-10-19T10:49:04.046Z,-3.74
2022-10-19T10:50:08.948Z,-3.74
2022-10-19T10:51:12.996Z,-3.67
2022-10-19T10:52:13.117Z,-3.62
2022-10-19T10:53:13.146Z,-3.61
2022-10-19T10:54:13.171Z,-3.55
2022-10-19T10:55:13.165Z,-3.55
2022-10-19T10:56:13.643Z,-3.55
2022-10-19T10:57:13.395Z,-3.54
2022-10-19T10:58:17.259Z,-3.49
2022-10-19T10:59:17.327Z,-3.49
2022-10-19T11:00:17.315Z,-3.50
2022-10-19T11:01:17.426Z,-3.51
2022-10-19T11:02:17.382Z,-3.51
2022-10-19T11:03:17.416Z,-3.53
2022-10-19T11:04:17.410Z,-3.54
2022-10-19T11:05:17.437Z,-3.51
2022-10-19T11:06:17.479Z,-3.52
2022-10-19T11:07:17.503Z,-3.53
2022-10-19T11:08:17.514Z,-3.50
2022-10-19T11:09:17.670Z,-3.49
2022-10-19T11:10:17.560Z,-3.50
2022-10-19T11:11:17.627Z,-3.48
2022-10-19T11:12:17.613Z,-3.45
2022-10-19T11:13:17.663Z,-3.42
2022-10-19T11:14:17.760Z,-3.45
2022-10-19T11:15:17.814Z,-3.43
2022-10-19T11:16:17.703Z,-3.42
2022-10-19T11:17:17.751Z,-3.42
2022-10-19T11:18:17.758Z,-3.40
2022-10-19T11:19:18.332Z,-3.39
2022-10-19T11:20:17.802Z,-3.40
2022-10-19T11:21:18.287Z,-3.39
2022-10-19T11:22:26.355Z,-3.37
2022-10-19T11:23:23.881Z,-3.37
2022-10-19T11:24:24.069Z,-3.37
2022-10-19T11:25:23.906Z,-3.35
2022-10-19T11:26:23.927Z,-3.37
2022-10-19T11:27:23.963Z,-3.35
2022-10-19T11:28:23.969Z,-3.37
2022-10-19T11:29:24.027Z,-3.35
2022-10-19T11:30:24.009Z,-3.35
2022-10-19T11:31:24.096Z,-3.37
2022-10-19T11:32:24.080Z,-3.37
2022-10-19T11:33:39.157Z,-3.36
2022-10-19T11:34:26.024Z,-3.35
2022-10-19T11:35:24.178Z,-3.37
2022-10-19T11:36:24.576Z,-3.37
2022-10-19T11:37:29.158Z,-3.37
2022-10-19T11:38:35.169Z,-3.37
2022-10-19T11:39:35.439Z,-3.36
2022-10-19T11:40:35.297Z,-3.35
2022-10-19T11:41:35.358Z,-3.35
2022-10-19T11:42:35.425Z,-3.33
2022-10-19T11:43:35.385Z,-3.31
2022-10-19T11:44:35.409Z,-3.32
2022-10-19T11:45:35.464Z,-3.31
2022-10-19T11:46:35.463Z,-3.31
2022-10-19T11:47:40.379Z,-3.30
2022-10-19T11:48:43.681Z,-3.28
2022-10-19T11:49:40.572Z,-3.27
2022-10-19T11:50:42.222Z,-3.28
2022-10-19T11:51:40.730Z,-3.25
2022-10-19T11:52:45.699Z,-3.25
2022-10-19T11:53:50.580Z,-3.21
2022-10-19T11:54:50.738Z,-3.24
2022-10-19T11:55:50.789Z,-3.19
2022-10-19T11:57:03.217Z,-3.17
2022-10-19T11:57:50.814Z,-3.18
2022-10-19T11:58:50.893Z,-3.17
2022-10-19T11:59:50.872Z,-3.21
2022-10-19T12:02:45.025Z,-3.16
2022-10-19T12:03:44.957Z,-3.15
2022-10-19T12:04:45.009Z,-3.13
2022-10-19T12:05:45.009Z,-3.10
2022-10-19T12:06:49.945Z,-3.11
2022-10-19T12:07:50.119Z,-3.12
2022-10-19T12:08:52.465Z,-3.12
2022-10-19T12:09:50.180Z,-3.09
2022-10-19T12:10:50.168Z,-3.10
2022-10-19T12:11:50.269Z,-3.09
2022-10-19T12:12:50.408Z,-3.06
2022-10-19T12:13:56.162Z,-3.09
2022-10-19T12:14:56.326Z,-3.08
2022-10-19T12:15:56.338Z,-3.10
2022-10-19T12:16:56.374Z,-3.09
2022-10-19T12:17:56.396Z,-3.09
2022-10-19T12:18:56.432Z,-3.11
2022-10-19T12:19:56.901Z,-3.10
2022-10-19T12:20:56.532Z,-3.12
2022-10-19T12:21:56.501Z,-3.12
2022-10-19T12:22:56.706Z,-3.12
2022-10-19T12:23:56.587Z,-3.10
2022-10-19T12:25:01.531Z,-3.11
2022-10-19T12:26:01.854Z,-3.13
2022-10-19T12:27:01.695Z,-3.12
2022-10-19T12:28:01.739Z,-3.11
2022-10-19T12:29:01.777Z,-3.13
2022-10-19T12:30:01.863Z,-3.11
2022-10-19T12:31:01.808Z,-3.11
2022-10-19T12:32:01.909Z,-3.10
2022-10-19T12:33:01.975Z,-3.10
2022-10-19T12:34:01.929Z,-3.11
2022-10-19T12:35:01.953Z,-3.09
2022-10-19T12:36:06.870Z,-3.10
2022-10-19T12:37:07.035Z,-3.06
2022-10-19T12:38:07.042Z,-3.07
2022-10-19T12:39:07.102Z,-3.05
2022-10-19T12:40:07.084Z,-3.03
2022-10-19T12:41:07.122Z,-3.03
2022-10-19T12:42:07.291Z,-3.03
2022-10-19T12:43:07.286Z,-3.04
2022-10-19T12:44:07.209Z,-3.03
2022-10-19T12:45:07.262Z,-3.03
2022-10-19T12:46:07.290Z,-3.02
2022-10-19T12:47:07.476Z,-3.02
2022-10-19T12:48:07.379Z,-3.02
2022-10-19T12:49:11.330Z,-3.00
2022-10-19T12:50:11.497Z,-2.98
2022-10-19T12:51:11.464Z,-2.95
2022-10-19T12:52:11.616Z,-2.95
2022-10-19T12:53:11.654Z,-2.97
2022-10-19T12:54:11.578Z,-2.95
2022-10-19T12:55:11.597Z,-2.93
2022-10-19T12:56:11.673Z,-2.93
2022-10-19T12:57:11.698Z,-2.93
2022-10-19T12:58:11.729Z,-2.93
2022-10-19T12:59:11.751Z,-2.91
2022-10-19T13:00:11.788Z,-2.92
2022-10-19T13:01:11.945Z,-2.93
2022-10-19T13:02:12.028Z,-2.90
2022-10-19T13:03:12.045Z,-2.91
2022-10-19T13:04:11.942Z,-2.90
2022-10-19T13:05:11.956Z,-2.90
2022-10-19T13:06:15.898Z,-2.91
2022-10-19T13:07:16.075Z,-2.89
2022-10-19T13:08:16.085Z,-2.89
2022-10-19T13:09:16.131Z,-2.89
2022-10-19T13:11:21.120Z,-2.88
2022-10-19T13:12:23.552Z,-2.84